Time;durP1;ratioP1;P1;durP2;ratioP2;P2;SDS_P1;SDS_P2;PMS_P1;PMS_P2;Temp;Humidity;BMP_temperature;BMP_pressure;BME280_temperature;BME280_humidity;BME280_pressure;Samples;Min_cycle;Max_cycle;Signal;HPM_P1;HPM_P2
2022/12/30 00:00:12;;;;;;;97.30;58.25;;;;;;;6.92;58.48;94585.06;4983377;28;20065;-75
2022/12/30 00:02:37;;;;;;;78.40;50.63;;;;;;;7.10;58.31;94592.38;5004207;28;20029;-74
2022/12/30 00:05:03;;;;;;;66.57;45.97;;;;;;;6.95;58.71;94605.66;4988968;28;20994;-74
2022/12/30 00:07:28;;;;;;;67.53;41.03;;;;;;;6.95;59.10;94600.38;4992715;28;20117;-76
2022/12/30 00:09:54;;;;;;;55.72;39.40;;;;;;;6.96;58.38;94605.41;4988248;28;20037;-75
2022/12/30 00:34:30;;;;;;;59.90;40.75;;;;;;;7.02;58.23;94625.50;4991113;28;20072;-76
2022/12/30 00:36:56;;;;;;;76.55;50.00;;;;;;;7.05;58.57;94629.44;4992011;28;20056;-75
2022/12/30 00:39:22;;;;;;;76.88;49.08;;;;;;;6.87;58.87;94617.59;4989392;28;20351;-76
2022/12/30 00:44:31;;;;;;;69.60;47.40;;;;;;;6.91;58.57;94626.59;4990680;28;20072;-75
2022/12/30 00:46:58;;;;;;;68.90;46.45;;;;;;;6.74;59.16;94619.00;4991105;28;20144;-74
2022/12/30 00:57:36;;;;;;;54.05;37.88;;;;;;;7.05;58.13;94627.59;4992840;28;20416;-74
2022/12/30 01:00:04;;;;;;;50.35;35.45;;;;;;;6.89;57.98;94610.22;4990866;28;20112;-74
2022/12/30 01:02:30;;;;;;;49.88;33.33;;;;;;;6.73;58.79;94612.09;4988820;28;20053;-73
2022/12/30 01:04:55;;;;;;;34.80;25.88;;;;;;;6.82;58.22;94621.06;4991549;28;20052;-74
2022/12/30 01:07:21;;;;;;;41.88;28.95;;;;;;;6.54;58.38;94587.31;4991222;28;20652;-75
2022/12/30 01:09:46;;;;;;;45.47;29.52;;;;;;;6.55;59.17;94620.63;4987285;28;20034;-75
2022/12/30 01:12:11;;;;;;;43.92;30.98;;;;;;;6.70;58.81;94620.56;4990004;28;20046;-76
2022/12/30 01:14:41;;;;;;;41.80;29.42;;;;;;;6.70;59.14;94628.50;4990534;28;20606;-75
2022/12/30 01:17:09;;;;;;;51.05;32.88;;;;;;;6.75;58.79;94615.25;4990198;28;20584;-75
2022/12/30 01:19:34;;;;;;;44.85;31.98;;;;;;;6.64;59.11;94619.00;4993163;28;20540;-74
2022/12/30 01:22:00;;;;;;;48.58;31.88;;;;;;;6.68;58.81;94622.69;4990654;28;20021;-75
2022/12/30 01:24:25;;;;;;;48.30;30.50;;;;;;;6.55;59.12;94610.06;4992655;28;20030;-73
2022/12/30 01:26:51;;;;;;;44.25;31.10;;;;;;;6.65;59.23;94619.81;4988878;28;20096;-74
2022/12/30 01:29:37;;;;;;;48.25;32.45;;;;;;;6.71;59.35;94613.44;4992760;28;20121;-73
2022/12/30 01:32:05;;;;;;;46.15;31.63;;;;;;;6.95;58.38;94616.25;4989258;28;20041;-72
2022/12/30 01:34:31;;;;;;;39.08;27.05;;;;;;;7.00;58.04;94621.53;4991516;28;20057;-74
2022/12/30 01:36:56;;;;;;;58.45;37.92;;;;;;;6.89;58.02;94614.72;4992152;28;20029;-73
2022/12/30 01:39:22;;;;;;;55.40;36.10;;;;;;;6.83;58.26;94606.00;4990594;28;20026;-74
2022/12/30 01:41:48;;;;;;;57.33;37.33;;;;;;;6.56;58.61;94587.81;4991936;28;20661;-73
2022/12/30 01:44:51;;;;;;;50.50;34.85;;;;;;;6.64;58.87;94605.78;4988462;28;20952;-74
2022/12/30 01:47:33;;;;;;;48.05;33.08;;;;;;;6.61;59.06;94600.22;4991544;28;20030;-73
2022/12/30 01:50:16;;;;;;;42.80;29.42;;;;;;;6.55;58.82;94585.47;4994343;28;20409;-78
2022/12/30 01:52:49;;;;;;;48.30;29.15;;;;;;;6.61;58.72;94601.03;4990517;28;20500;-75
2022/12/30 01:55:21;;;;;;;38.78;26.70;;;;;;;6.59;58.88;94595.22;4995544;28;20034;-75
2022/12/30 01:57:50;;;;;;;35.17;24.38;;;;;;;6.62;58.68;94599.97;4995325;28;20073;-75
2022/12/30 02:00:17;;;;;;;35.05;22.83;;;;;;;6.53;58.54;94591.00;4994827;28;20412;-75
2022/12/30 02:02:42;;;;;;;30.55;21.60;;;;;;;6.51;58.63;94598.41;4990968;28;20049;-77
2022/12/30 02:05:10;;;;;;;20.38;14.35;;;;;;;6.66;58.30;94601.00;4996567;28;20085;-75
2022/12/30 02:07:41;;;;;;;17.92;13.13;;;;;;;6.46;58.93;94600.28;4989850;28;20947;-75
2022/12/30 02:10:08;;;;;;;15.95;11.82;;;;;;;6.56;58.57;94589.66;4993065;28;20409;-75
2022/12/30 02:12:34;;;;;;;15.60;12.07;;;;;;;6.62;58.55;94599.97;4995165;28;20088;-75
2022/12/30 02:15:02;;;;;;;17.70;12.05;;;;;;;6.65;58.05;94596.00;4992735;28;20057;-75
2022/12/30 02:17:36;;;;;;;18.95;13.57;;;;;;;6.59;57.77;94595.22;4995947;28;20041;-73
2022/12/30 02:20:32;;;;;;;20.73;12.40;;;;;;;6.53;58.01;94593.66;4992974;28;20042;-77
2022/12/30 02:23:13;;;;;;;19.50;13.35;;;;;;;6.60;57.63;94596.81;4994291;28;20412;-74
2022/12/30 02:25:58;;;;;;;18.05;11.65;;;;;;;6.50;57.92;94602.13;4995180;28;20380;-75
2022/12/30 02:29:01;;;;;;;19.40;13.70;;;;;;;6.47;58.01;94596.56;4992434;28;20698;-73
2022/12/30 02:31:54;;;;;;;19.48;13.88;;;;;;;6.51;58.02;94594.97;4995075;28;20069;-76
2022/12/30 02:34:28;;;;;;;16.38;13.38;;;;;;;6.55;57.69;94599.47;4997006;28;20049;-75
2022/12/30 02:37:00;;;;;;;17.75;12.70;;;;;;;6.69;56.93;94589.13;4993741;28;20034;-76
2022/12/30 02:39:35;;;;;;;22.42;15.80;;;;;;;6.54;57.37;94597.88;4996975;28;20311;-76
2022/12/30 02:45:00;;;;;;;19.40;13.48;;;;;;;6.40;57.97;94596.88;4996636;28;19940;-74
2022/12/30 02:47:35;;;;;;;26.92;18.23;;;;;;;6.31;58.36;94582.63;4996341;28;20038;-75
2022/12/30 02:52:52;;;;;;;32.88;21.50;;;;;;;6.29;58.05;94580.25;4994522;28;20049;-76
2022/12/30 02:55:18;;;;;;;37.50;27.05;;;;;;;6.29;58.31;94588.16;4994200;28;20137;-75
2022/12/30 02:57:43;;;;;;;37.03;26.75;;;;;;;6.23;58.21;94586.59;5010141;28;20042;-77
2022/12/30 03:06:33;;;;;;;25.48;19.25;;;;;;;6.07;58.36;94597.41;4991346;28;20400;-75
2022/12/30 03:09:22;;;;;;;21.65;16.27;;;;;;;6.11;57.78;94593.19;4993105;28;20562;-75
2022/12/30 03:11:59;;;;;;;27.52;17.13;;;;;;;6.05;57.79;94594.25;4988288;28;20727;-75
2022/12/30 03:14:33;;;;;;;32.85;21.70;;;;;;;5.92;57.73;94585.78;5007085;28;20046;-75
2022/12/30 03:17:06;;;;;;;38.25;25.60;;;;;;;6.06;57.83;94601.09;4991826;28;20137;-74
2022/12/30 03:19:38;;;;;;;32.15;23.35;;;;;;;5.94;57.68;94604.81;4994906;28;20056;-74
2022/12/30 03:22:05;;;;;;;35.30;23.83;;;;;;;5.92;57.87;94598.97;4993344;28;20026;-76
2022/12/30 03:27:22;;;;;;;50.08;29.40;;;;;;;5.76;58.22;94591.34;4973657;28;20049;-75
2022/12/30 03:29:59;;;;;;;38.20;26.92;;;;;;;5.89;58.21;94601.38;4990981;28;20042;-74
2022/12/30 03:32:25;;;;;;;48.15;31.70;;;;;;;5.69;58.47;94591.59;5007512;28;20030;-75
2022/12/30 03:34:51;;;;;;;41.53;30.00;;;;;;;5.75;58.47;94610.88;4993239;28;20038;-75
2022/12/30 03:37:23;;;;;;;43.78;30.00;;;;;;;5.85;57.12;94601.09;4994487;28;20052;-75
2022/12/30 03:40:11;;;;;;;58.90;40.38;;;;;;;5.77;57.78;94612.19;4988331;28;20030;-75
2022/12/30 03:42:36;;;;;;;65.40;42.38;;;;;;;5.58;58.61;94613.75;4995573;28;20560;-74
2022/12/30 03:45:03;;;;;;;49.30;32.60;;;;;;;5.59;58.49;94596.84;4990542;28;21170;-75
2022/12/30 03:47:29;;;;;;;41.80;24.42;;;;;;;5.54;58.52;94599.50;4992735;28;20117;-75
2022/12/30 03:49:54;;;;;;;27.45;20.20;;;;;;;5.54;58.93;94599.50;4992999;28;20929;-75
2022/12/30 03:52:21;;;;;;;26.60;17.67;;;;;;;5.57;59.02;94607.69;4991263;28;20508;-74
2022/12/30 03:54:47;;;;;;;26.88;17.95;;;;;;;5.54;59.26;94605.56;4991908;28;20036;-76
2022/12/30 03:57:13;;;;;;;19.88;15.82;;;;;;;5.57;59.16;94597.13;4992313;28;20057;-75
2022/12/30 03:59:40;;;;;;;19.55;14.55;;;;;;;5.53;59.30;94598.69;4992836;28;20037;-75
2022/12/30 04:02:05;;;;;;;20.92;15.65;;;;;;;5.56;59.14;94597.41;4990600;28;20905;-76
2022/12/30 04:04:30;;;;;;;29.73;20.23;;;;;;;5.53;59.06;94606.59;4990488;28;20034;-76
2022/12/30 04:06:56;;;;;;;27.13;19.65;;;;;;;5.56;58.87;94611.38;5006232;28;20045;-74
2022/12/30 04:09:22;;;;;;;28.77;19.00;;;;;;;5.62;58.83;94621.94;4993168;28;20048;-75
2022/12/30 04:11:47;;;;;;;24.42;17.33;;;;;;;5.50;59.22;94619.53;4989063;28;20651;-75
2022/12/30 04:14:12;;;;;;;31.77;22.02;;;;;;;5.58;60.16;94627.72;4993388;28;20555;-73
2022/12/30 04:16:38;;;;;;;45.10;30.00;;;;;;;5.81;60.47;94620.38;4992637;28;20037;-73
2022/12/30 04:19:03;;;;;;;61.28;41.75;;;;;;;5.89;60.72;94633.03;4989959;28;20429;-75
2022/12/30 04:21:29;;;;;;;63.28;41.95;;;;;;;5.90;61.33;94622.22;4991920;28;20029;-74
2022/12/30 04:23:54;;;;;;;48.05;32.15;;;;;;;5.72;61.23;94601.63;4992353;28;20030;-74
2022/12/30 04:26:20;;;;;;;46.58;28.55;;;;;;;5.81;61.44;94630.94;4993131;28;20304;-73
2022/12/30 04:28:47;;;;;;;38.33;25.58;;;;;;;5.80;61.39;94635.44;4991282;28;21416;-74
2022/12/30 04:31:12;;;;;;;36.20;24.45;;;;;;;5.68;61.81;94631.44;4993266;28;20128;-74
2022/12/30 04:33:38;;;;;;;35.63;23.02;;;;;;;5.69;61.43;94633.81;4990674;28;20030;-73
2022/12/30 04:36:04;;;;;;;31.52;21.88;;;;;;;5.65;61.73;94627.50;4993069;28;20034;-74
2022/12/30 04:38:29;;;;;;;34.78;24.40;;;;;;;5.21;63.06;94621.06;4988457;28;20893;-73
2022/12/30 04:40:55;;;;;;;38.10;27.23;;;;;;;5.41;62.85;94636.94;4992853;28;20042;-74
2022/12/30 04:43:20;;;;;;;35.28;24.30;;;;;;;5.59;62.28;94639.09;4989591;28;20038;-75
2022/12/30 04:45:45;;;;;;;31.70;22.50;;;;;;;5.70;61.35;94640.69;4993481;28;20041;-74
2022/12/30 04:48:11;;;;;;;36.95;24.23;;;;;;;5.70;60.82;94629.34;4989156;28;20508;-73
2022/12/30 04:50:41;;;;;;;37.38;24.02;;;;;;;5.77;60.69;94643.88;4990075;28;20638;-74
2022/12/30 04:53:06;;;;;;;38.08;25.30;;;;;;;5.82;60.28;94641.22;4988296;28;20586;-74
2022/12/30 04:55:32;;;;;;;39.78;26.88;;;;;;;5.83;59.69;94642.00;4990084;28;20037;-74
2022/12/30 04:57:57;;;;;;;40.05;25.92;;;;;;;5.76;59.63;94639.66;4993427;28;20034;-74
2022/12/30 05:00:23;;;;;;;48.83;30.98;;;;;;;5.74;59.81;94651.50;4992508;28;20030;-74
2022/12/30 05:02:48;;;;;;;47.90;32.50;;;;;;;5.76;59.65;94646.78;4990544;28;20095;-73
2022/12/30 05:05:14;;;;;;;44.08;28.63;;;;;;;5.70;59.52;94639.91;4991983;28;20048;-74
2022/12/30 05:07:39;;;;;;;37.15;28.15;;;;;;;5.70;59.67;94650.44;4990296;28;20396;-74
2022/12/30 05:10:05;;;;;;;44.22;30.10;;;;;;;5.62;59.54;94649.13;4991748;28;20029;-73
2022/12/30 05:12:31;;;;;;;46.72;30.98;;;;;;;5.58;59.90;94648.03;4992338;28;20033;-73
2022/12/30 05:14:56;;;;;;;47.45;32.47;;;;;;;5.42;59.74;94634.06;4991804;28;20062;-74
2022/12/30 05:17:21;;;;;;;49.63;32.83;;;;;;;5.55;59.79;94654.66;4991164;28;20038;-76
2022/12/30 05:19:47;;;;;;;57.60;39.10;;;;;;;5.61;60.14;94650.19;4989719;28;20053;-77
2022/12/30 05:22:12;;;;;;;57.08;37.05;;;;;;;5.69;60.24;94660.22;4992160;28;20049;-76
2022/12/30 05:27:21;;;;;;;43.95;29.70;;;;;;;5.62;60.27;94653.63;4972722;28;20472;-74
2022/12/30 05:29:47;;;;;;;32.72;24.08;;;;;;;5.68;60.14;94668.38;4985699;28;20125;-75
2022/12/30 05:32:12;;;;;;;22.73;16.85;;;;;;;5.64;59.78;94657.56;4987618;28;20041;-75
2022/12/30 05:34:37;;;;;;;19.90;15.35;;;;;;;5.69;59.38;94668.13;4992652;28;20826;-76
2022/12/30 05:37:03;;;;;;;20.65;14.90;;;;;;;5.76;58.03;94660.75;4990878;28;20042;-75
2022/12/30 05:39:28;;;;;;;22.88;14.52;;;;;;;5.57;58.46;94672.88;4991386;28;20030;-76
2022/12/30 05:41:53;;;;;;;28.30;17.95;;;;;;;5.30;59.40;94653.78;5005588;28;20030;-75
2022/12/30 05:44:19;;;;;;;21.48;16.10;;;;;;;5.42;59.48;94681.53;4991708;28;20034;-75
2022/12/30 05:46:45;;;;;;;24.15;16.38;;;;;;;5.40;59.30;94682.84;4990321;28;20046;-76
2022/12/30 05:49:10;;;;;;;25.27;19.00;;;;;;;5.49;59.38;94682.06;4989520;28;20397;-75
2022/12/30 05:51:36;;;;;;;30.95;20.92;;;;;;;5.33;59.17;94682.31;4991101;28;20121;-77
2022/12/30 05:54:01;;;;;;;26.58;19.40;;;;;;;5.35;59.10;94696.00;4990949;28;20042;-75
2022/12/30 05:56:26;;;;;;;27.23;19.27;;;;;;;5.42;58.86;94696.56;4991266;28;20404;-74
2022/12/30 05:58:52;;;;;;;28.00;18.80;;;;;;;5.38;58.77;94690.22;4988937;28;20044;-75
2022/12/30 06:01:17;;;;;;;26.50;18.33;;;;;;;5.27;59.51;94680.69;4991885;28;20064;-74
2022/12/30 06:03:43;;;;;;;22.70;16.45;;;;;;;5.31;59.72;94687.03;4991457;28;20477;-75
2022/12/30 06:06:10;;;;;;;24.77;16.20;;;;;;;5.26;59.99;94693.09;4987367;28;20038;-75
2022/12/30 06:08:36;;;;;;;24.65;16.50;;;;;;;5.21;60.13;94690.41;4987531;28;20041;-76
2022/12/30 06:11:03;;;;;;;21.88;15.90;;;;;;;5.39;59.72;94689.16;4987847;28;20030;-76
2022/12/30 06:13:28;;;;;;;21.13;16.23;;;;;;;5.31;59.83;94679.13;4987875;28;20112;-74
2022/12/30 06:15:53;;;;;;;24.50;16.85;;;;;;;5.13;60.47;94691.72;4992132;28;20548;-75
2022/12/30 06:18:19;;;;;;;21.80;15.82;;;;;;;5.26;60.51;94694.91;4990843;28;20030;-76
2022/12/30 06:20:45;;;;;;;25.65;16.02;;;;;;;5.32;60.38;94696.53;5004378;28;20029;-75
2022/12/30 06:23:11;;;;;;;21.65;15.98;;;;;;;5.14;60.98;94682.75;4992673;28;20034;-75
2022/12/30 06:25:36;;;;;;;25.25;15.93;;;;;;;5.19;61.20;94684.59;4987850;28;20030;-75
2022/12/30 06:28:02;;;;;;;23.95;16.40;;;;;;;5.31;61.29;94690.47;4990694;28;20463;-74
2022/12/30 06:30:28;;;;;;;30.30;22.60;;;;;;;5.12;62.17;94691.97;4992169;28;20028;-75
2022/12/30 06:32:54;;;;;;;27.25;20.17;;;;;;;5.20;62.00;94704.66;4989096;28;20124;-75
2022/12/30 06:35:20;;;;;;;31.05;19.70;;;;;;;5.28;61.75;94709.44;4992003;28;20080;-75
2022/12/30 06:37:45;;;;;;;27.42;18.50;;;;;;;5.40;61.54;94706.56;4995703;28;20107;-77
2022/12/30 06:40:11;;;;;;;23.20;17.83;;;;;;;5.27;61.38;94683.31;4992154;28;20048;-75
2022/12/30 06:42:36;;;;;;;32.30;19.35;;;;;;;5.34;61.25;94699.69;5012315;28;20109;-74
2022/12/30 06:45:02;;;;;;;25.35;19.45;;;;;;;5.35;61.61;94703.91;4992191;28;20476;-75
2022/12/30 06:47:27;;;;;;;31.83;22.20;;;;;;;5.42;61.44;94702.66;4995086;28;20120;-75
2022/12/30 06:49:52;;;;;;;37.83;23.45;;;;;;;5.40;61.18;94696.03;4992601;28;20045;-75
2022/12/30 06:52:18;;;;;;;34.90;23.50;;;;;;;5.44;61.31;94705.00;4994550;28;20042;-75
2022/12/30 06:54:43;;;;;;;32.60;21.63;;;;;;;5.65;60.25;94713.78;4993196;28;20580;-75
2022/12/30 06:57:09;;;;;;;29.52;19.88;;;;;;;5.52;61.03;94701.88;4991883;28;20428;-76
2022/12/30 06:59:34;;;;;;;28.30;19.40;;;;;;;5.58;61.32;94721.94;4995606;28;20041;-76
2022/12/30 07:02:00;;;;;;;31.95;20.52;;;;;;;5.49;61.84;94712.94;4992545;28;20068;-77
2022/12/30 07:04:25;;;;;;;28.25;21.05;;;;;;;5.55;61.88;94722.47;5007795;28;20033;-75
2022/12/30 07:06:51;;;;;;;23.50;17.60;;;;;;;5.69;61.33;94730.69;4993866;28;20037;-74
2022/12/30 07:09:17;;;;;;;33.60;22.80;;;;;;;5.24;63.49;94729.47;4995822;28;20384;-76
2022/12/30 07:11:42;;;;;;;31.67;21.65;;;;;;;5.38;63.30;94721.88;4993775;28;20405;-75
2022/12/30 07:14:07;;;;;;;37.92;25.92;;;;;;;5.54;63.29;94720.88;4990431;28;20038;-76
2022/12/30 07:16:33;;;;;;;36.03;24.88;;;;;;;5.66;62.61;94732.00;4991282;28;20549;-76
2022/12/30 07:18:58;;;;;;;46.80;30.90;;;;;;;5.77;62.69;94720.44;4994143;28;20148;-73
2022/12/30 07:21:23;;;;;;;51.83;34.22;;;;;;;5.67;63.42;94720.41;4993129;28;20821;-75
2022/12/30 07:23:49;;;;;;;57.80;38.78;;;;;;;5.73;63.52;94721.97;4993434;28;20030;-74
2022/12/30 07:26:14;;;;;;;64.80;41.70;;;;;;;5.71;62.82;94715.38;4989182;28;21191;-74
2022/12/30 07:28:40;;;;;;;65.03;41.60;;;;;;;5.78;62.65;94715.91;4992352;28;20048;-73
2022/12/30 07:31:05;;;;;;;73.68;46.83;;;;;;;5.40;63.94;94717.13;4990185;28;20049;-75
2022/12/30 07:33:30;;;;;;;72.55;45.97;;;;;;;5.50;64.03;94725.09;4994666;28;20027;-74
2022/12/30 07:35:56;;;;;;;66.57;45.10;;;;;;;5.59;64.20;94736.72;4990803;28;20116;-75
2022/12/30 07:38:21;;;;;;;63.90;40.63;;;;;;;5.78;64.17;94742.31;5004662;28;20033;-74
2022/12/30 07:40:47;;;;;;;69.50;44.17;;;;;;;5.83;63.42;94719.38;5004024;28;20049;-75
2022/12/30 07:43:12;;;;;;;79.15;46.75;;;;;;;6.12;62.85;94732.09;4989616;28;20559;-77
2022/12/30 07:45:38;;;;;;;68.32;44.00;;;;;;;6.17;62.42;94729.47;4990450;28;20409;-75
2022/12/30 07:48:03;;;;;;;63.80;46.10;;;;;;;6.14;62.31;94727.34;4988941;28;20049;-74
2022/12/30 07:50:28;;;;;;;72.88;47.55;;;;;;;6.00;62.90;94712.03;4990126;28;20033;-75
2022/12/30 07:52:54;;;;;;;76.53;50.33;;;;;;;5.93;63.44;94740.50;4985326;28;20030;-74
2022/12/30 07:55:20;;;;;;;71.05;48.00;;;;;;;6.04;63.91;94735.25;4993302;28;20061;-74
2022/12/30 07:57:45;;;;;;;65.90;45.65;;;;;;;6.11;63.44;94738.44;4991779;28;20089;-75
2022/12/30 08:00:12;;;;;;;72.10;47.65;;;;;;;5.76;65.90;94749.72;4986613;28;21180;-75
2022/12/30 08:02:38;;;;;;;78.88;49.58;;;;;;;6.09;64.28;94730.78;4988494;28;20583;-76
2022/12/30 08:05:05;;;;;;;86.05;54.97;;;;;;;5.74;66.00;94736.78;4987560;28;20500;-74
2022/12/30 08:07:30;;;;;;;88.38;54.83;;;;;;;5.96;64.87;94723.38;4986944;28;20030;-74
2022/12/30 08:09:56;;;;;;;79.13;54.15;;;;;;;6.29;63.59;94727.38;4990796;28;20063;-74
2022/12/30 08:12:21;;;;;;;81.18;55.53;;;;;;;6.47;62.47;94723.41;5006801;28;20495;-75
2022/12/30 08:14:46;;;;;;;85.60;55.17;;;;;;;6.55;62.06;94717.63;4992473;28;20062;-74
2022/12/30 08:17:12;;;;;;;82.22;55.25;;;;;;;6.78;61.31;94717.84;4988876;28;20516;-74
2022/12/30 08:19:37;;;;;;;83.28;54.65;;;;;;;6.85;61.12;94714.91;4988632;28;20132;-74
2022/12/30 08:22:02;;;;;;;73.60;51.00;;;;;;;7.05;60.30;94735.25;4989032;28;20809;-75
2022/12/30 08:24:28;;;;;;;73.40;47.88;;;;;;;7.03;60.27;94732.09;4990758;28;20021;-73
2022/12/30 08:26:53;;;;;;;71.70;49.28;;;;;;;6.24;62.91;94725.53;4992157;28;20955;-73
2022/12/30 08:29:19;;;;;;;84.38;53.97;;;;;;;6.51;61.69;94717.34;4985023;28;20045;-74
2022/12/30 08:31:49;;;;;;;93.88;64.15;;;;;;;5.29;67.56;94703.09;4985549;28;20591;-76
2022/12/30 08:34:19;;;;;;;100.43;69.90;;;;;;;5.14;68.58;94726.78;4985126;28;20041;-74
2022/12/30 08:36:45;;;;;;;101.40;69.28;;;;;;;5.33;68.62;94741.13;4984219;28;20042;-75
2022/12/30 08:39:10;;;;;;;100.75;67.40;;;;;;;5.01;69.82;94743.84;5001766;28;20040;-74
2022/12/30 08:41:39;;;;;;;98.40;70.20;;;;;;;4.42;69.36;94629.94;4985649;28;20033;-75
2022/12/30 08:44:05;;;;;;;91.50;63.90;;;;;;;5.48;66.88;94712.13;4985941;28;20041;-74
2022/12/30 08:46:33;;;;;;;86.78;60.53;;;;;;;6.08;64.33;94731.03;4986606;28;20041;-74
2022/12/30 08:48:59;;;;;;;87.45;58.90;;;;;;;5.96;64.85;94736.56;4986508;28;20713;-75
2022/12/30 08:51:25;;;;;;;78.32;51.60;;;;;;;5.99;65.14;94741.31;4987765;28;20544;-74
2022/12/30 08:53:51;;;;;;;80.55;55.25;;;;;;;5.44;66.19;94739.31;4986175;28;20038;-75
2022/12/30 08:56:29;;;;;;;92.43;63.65;;;;;;;5.49;67.84;94737.47;4989576;28;20092;-75
2022/12/30 08:58:56;;;;;;;93.80;63.90;;;;;;;5.96;65.94;94729.44;4979983;28;20125;-75
2022/12/30 09:01:36;;;;;;;98.18;65.85;;;;;;;5.25;68.95;94738.16;4990782;28;20033;-73
2022/12/30 09:04:03;;;;;;;87.88;61.53;;;;;;;5.85;66.47;94733.13;4982037;28;20041;-74
2022/12/30 09:06:29;;;;;;;94.03;62.38;;;;;;;5.52;67.46;94738.81;4978969;28;20662;-74
2022/12/30 09:08:56;;;;;;;94.53;64.32;;;;;;;5.94;66.40;94722.81;4982972;28;20060;-74
2022/12/30 09:11:25;;;;;;;84.43;60.10;;;;;;;5.32;67.92;94733.47;4982311;28;20708;-74
2022/12/30 09:13:51;;;;;;;81.38;56.45;;;;;;;5.85;66.92;94740.22;4981403;28;20038;-73
2022/12/30 09:16:23;;;;;;;85.50;56.10;;;;;;;6.12;63.86;94721.50;4984956;28;20045;-74
2022/12/30 09:18:49;;;;;;;76.40;51.15;;;;;;;5.55;67.05;94736.44;4982475;28;20504;-75
2022/12/30 09:21:15;;;;;;;78.13;51.25;;;;;;;5.87;65.68;94707.22;4984983;28;20087;-73
2022/12/30 09:23:40;;;;;;;79.13;52.22;;;;;;;6.25;64.54;94715.78;4984755;28;20042;-77
2022/12/30 09:26:08;;;;;;;78.10;53.88;;;;;;;6.13;64.08;94718.63;4983480;28;20046;-73
2022/12/30 09:28:34;;;;;;;77.68;52.75;;;;;;;6.52;63.41;94721.56;4985361;28;20472;-76
2022/12/30 09:31:00;;;;;;;74.30;51.25;;;;;;;7.08;60.77;94714.34;4986536;28;20022;-76
2022/12/30 09:33:25;;;;;;;71.68;47.80;;;;;;;6.16;63.47;94717.34;4987536;28;20026;-76
2022/12/30 09:35:50;;;;;;;70.18;47.38;;;;;;;6.50;62.97;94712.34;4982025;28;20547;-75
2022/12/30 09:38:16;;;;;;;76.55;49.13;;;;;;;7.04;60.64;94721.25;4988438;28;20034;-76
2022/12/30 09:40:57;;;;;;;73.18;48.03;;;;;;;6.76;61.19;94712.03;4984698;28;20104;-75
2022/12/30 09:43:38;;;;;;;76.53;49.75;;;;;;;6.67;61.26;94692.47;4987860;28;21664;-75
2022/12/30 09:46:10;;;;;;;73.25;49.17;;;;;;;6.71;60.82;94706.75;4978802;28;21467;-74
2022/12/30 09:48:59;;;;;;;73.10;49.03;;;;;;;6.45;62.60;94686.72;4981990;28;20029;-75
2022/12/30 09:51:34;;;;;;;71.35;46.72;;;;;;;7.15;60.95;94698.19;4982517;28;20045;-77
2022/12/30 09:54:13;;;;;;;69.47;48.05;;;;;;;7.52;58.97;94693.28;4980851;28;20126;-76
2022/12/30 09:56:42;;;;;;;81.55;54.25;;;;;;;6.90;60.33;94695.63;4986524;28;20044;-75
2022/12/30 09:59:26;;;;;;;77.70;51.83;;;;;;;7.59;59.02;94693.75;4985754;28;20038;-75
2022/12/30 10:02:04;;;;;;;75.85;53.80;;;;;;;6.75;61.27;94670.00;4987639;28;20092;-77
2022/12/30 10:04:36;;;;;;;78.45;54.67;;;;;;;7.27;60.51;94670.38;4999559;28;20038;-75
2022/12/30 10:07:25;;;;;;;80.65;54.45;;;;;;;7.19;60.02;94681.50;4983511;28;20026;-75
2022/12/30 10:09:58;;;;;;;74.40;52.08;;;;;;;7.49;58.51;94672.63;4986495;28;20552;-76
2022/12/30 10:12:51;;;;;;;83.05;54.65;;;;;;;7.39;58.50;94640.91;4986242;28;20524;-77
2022/12/30 10:15:28;;;;;;;88.53;55.03;;;;;;;7.79;57.50;94671.72;4985942;28;20053;-75
2022/12/30 10:18:19;;;;;;;86.38;58.15;;;;;;;7.42;57.89;94679.31;4985968;28;20038;-74
2022/12/30 10:20:51;;;;;;;86.32;59.80;;;;;;;6.74;61.02;94666.56;4986161;28;20517;-75
2022/12/30 10:23:46;;;;;;;83.93;56.75;;;;;;;7.13;60.10;94655.34;4983854;28;20117;-77
2022/12/30 10:26:21;;;;;;;85.47;59.30;;;;;;;6.97;59.54;94653.81;4987501;28;20123;-77
2022/12/30 10:29:01;;;;;;;89.30;60.70;;;;;;;6.65;60.21;94662.09;4985112;28;20050;-76
2022/12/30 10:31:31;;;;;;;89.43;58.97;;;;;;;7.09;59.72;94667.53;5000423;28;20048;-75
2022/12/30 10:34:08;;;;;;;82.05;56.13;;;;;;;7.22;59.53;94651.06;4984687;28;20034;-75
2022/12/30 10:36:40;;;;;;;87.55;57.58;;;;;;;7.08;59.13;94636.84;4985602;28;20022;-75
2022/12/30 10:39:33;;;;;;;86.85;59.08;;;;;;;7.07;59.13;94653.78;4996925;28;20037;-75
2022/12/30 10:42:08;;;;;;;88.03;57.80;;;;;;;7.02;59.06;94653.78;4983742;28;20496;-75
2022/12/30 10:44:42;;;;;;;88.63;60.20;;;;;;;7.10;59.25;94642.63;5001194;28;20542;-75
2022/12/30 10:47:36;;;;;;;85.85;60.53;;;;;;;6.68;60.06;94646.50;4986882;28;20044;-74
2022/12/30 10:50:06;;;;;;;85.38;56.50;;;;;;;7.04;59.18;94633.16;4999678;28;20096;-77
2022/12/30 10:52:32;;;;;;;88.28;58.10;;;;;;;7.50;57.71;94626.56;4987134;28;20573;-76
2022/12/30 10:54:58;;;;;;;90.68;59.30;;;;;;;7.51;57.34;94614.94;4984755;28;20054;-75
2022/12/30 10:57:31;;;;;;;77.82;55.42;;;;;;;7.66;56.89;94614.03;4986933;28;20372;-76
2022/12/30 10:59:58;;;;;;;89.07;59.42;;;;;;;7.51;57.67;94619.44;4985456;28;20065;-76
2022/12/30 11:02:36;;;;;;;87.35;58.20;;;;;;;7.21;58.38;94601.84;4989341;28;20443;-76
2022/12/30 11:05:02;;;;;;;78.53;54.15;;;;;;;7.53;57.60;94594.25;4990342;28;20072;-77
2022/12/30 11:07:28;;;;;;;82.35;56.63;;;;;;;7.97;56.19;94601.41;4990925;28;20125;-76
2022/12/30 11:09:53;;;;;;;83.50;53.85;;;;;;;8.15;56.16;94595.44;4989354;28;20021;-77
2022/12/30 11:15:12;;;;;;;73.38;50.90;;;;;;;7.73;56.46;94599.44;4984234;28;20157;-76
2022/12/30 11:17:57;;;;;;;73.15;51.10;;;;;;;7.87;56.22;94594.34;4986122;28;20042;-76
2022/12/30 11:20:36;;;;;;;88.15;58.80;;;;;;;8.02;56.22;94590.78;5004986;28;20088;-77
2022/12/30 11:23:05;;;;;;;77.93;48.83;;;;;;;7.95;55.50;94601.69;4988626;28;20052;-76
2022/12/30 11:25:42;;;;;;;69.82;47.35;;;;;;;7.79;56.05;94602.84;5004709;28;20057;-76
2022/12/30 11:28:34;;;;;;;68.68;48.15;;;;;;;8.39;54.71;94592.81;4989446;28;20197;-76
2022/12/30 11:31:06;;;;;;;71.45;47.35;;;;;;;8.06;54.20;94602.41;4999943;28;20053;-76
2022/12/30 11:33:45;;;;;;;66.78;45.17;;;;;;;8.26;54.06;94594.28;4980396;28;20076;-77
2022/12/30 11:36:15;;;;;;;72.50;48.50;;;;;;;8.66;53.61;94594.94;4987147;28;20033;-78
2022/12/30 11:38:46;;;;;;;74.28;48.45;;;;;;;8.84;52.91;94596.88;4984020;28;20033;-78
2022/12/30 11:41:21;;;;;;;64.22;46.55;;;;;;;8.81;52.62;94600.06;4983322;28;20065;-77
2022/12/30 11:43:46;;;;;;;67.90;47.00;;;;;;;8.21;54.19;94599.63;4985637;28;20037;-77
2022/12/30 11:46:19;;;;;;;76.90;49.28;;;;;;;8.09;54.88;94601.81;4987649;28;20034;-78
2022/12/30 11:48:52;;;;;;;69.20;44.33;;;;;;;7.57;56.72;94579.44;4986292;28;20030;-78
2022/12/30 11:51:22;;;;;;;65.53;46.55;;;;;;;8.08;55.76;94589.66;4987447;28;20048;-77
2022/12/30 11:54:00;;;;;;;65.88;44.72;;;;;;;7.18;57.94;94578.59;4992319;28;21081;-78
2022/12/30 11:56:26;;;;;;;69.93;47.65;;;;;;;7.35;57.88;94586.16;4989693;28;20038;-78
2022/12/30 11:58:52;;;;;;;63.45;44.80;;;;;;;7.58;57.57;94591.56;4985552;28;20408;-75
2022/12/30 12:01:18;;;;;;;65.18;43.50;;;;;;;7.92;55.78;94580.25;4988330;28;20108;-76
2022/12/30 12:03:49;;;;;;;69.15;44.97;;;;;;;8.27;55.68;94598.47;4988659;28;21368;-76
2022/12/30 12:06:15;;;;;;;68.65;45.90;;;;;;;8.46;54.67;94590.63;4969084;28;20421;-78
2022/12/30 12:08:53;;;;;;;63.00;44.53;;;;;;;7.93;55.77;94590.56;4983407;28;20038;-77
2022/12/30 12:11:24;;;;;;;68.25;44.85;;;;;;;7.86;55.90;94586.66;4988760;28;20611;-76
2022/12/30 12:14:11;;;;;;;72.05;46.97;;;;;;;8.50;54.33;94589.78;4980373;28;20133;-76
2022/12/30 12:16:58;;;;;;;62.78;44.10;;;;;;;8.85;53.34;94593.91;4984897;28;20045;-77
2022/12/30 12:19:59;;;;;;;60.60;42.53;;;;;;;8.78;52.86;94590.81;4984213;28;20046;-77
2022/12/30 12:22:36;;;;;;;62.50;42.55;;;;;;;8.94;52.58;94599.41;4963883;28;20137;-77
2022/12/30 12:25:13;;;;;;;65.90;44.92;;;;;;;9.11;52.39;94590.97;4987649;28;20025;-76
2022/12/30 12:27:39;;;;;;;60.92;44.50;;;;;;;9.51;52.21;94587.00;4986483;28;20068;-78